sensor_id;sensor_type;location;lat;lon;timestamp;P1;durP1;ratioP1;P2;durP2;ratioP2
17727;SDS011;8984;49.268;12.302;2022-09-11T00:00:37;2.10;;;1.50;;
17727;SDS011;8984;49.268;12.302;2022-09-11T00:03:05;3.83;;;1.70;;
17727;SDS011;8984;49.268;12.302;2022-09-11T00:05:35;3.47;;;2.27;;
17727;SDS011;8984;49.268;12.302;2022-09-11T00:08:03;5.43;;;1.70;;
17727;SDS011;8984;49.268;12.302;2022-09-11T00:10:32;2.80;;;1.67;;
17727;SDS011;8984;49.268;12.302;2022-09-11T00:13:02;5.00;;;1.80;;
17727;SDS011;8984;49.268;12.302;2022-09-11T00:15:29;2.20;;;1.43;;
17727;SDS011;8984;49.268;12.302;2022-09-11T00:17:56;4.90;;;1.80;;
17727;SDS011;8984;49.268;12.302;2022-09-11T00:20:23;3.50;;;1.80;;
17727;SDS011;8984;49.268;12.302;2022-09-11T00:22:49;3.07;;;1.70;;
17727;SDS011;8984;49.268;12.302;2022-09-11T00:25:17;4.93;;;1.70;;
17727;SDS011;8984;49.268;12.302;2022-09-11T00:27:44;1.80;;;1.50;;
17727;SDS011;8984;49.268;12.302;2022-09-11T00:30:12;5.10;;;1.90;;
17727;SDS011;8984;49.268;12.302;2022-09-11T00:32:39;3.27;;;1.67;;
17727;SDS011;8984;49.268;12.302;2022-09-11T00:35:06;4.17;;;1.93;;
17727;SDS011;8984;49.268;12.302;2022-09-11T00:37:33;5.10;;;2.00;;
17727;SDS011;8984;49.268;12.302;2022-09-11T00:40:00;3.57;;;1.90;;
17727;SDS011;8984;49.268;12.302;2022-09-11T00:42:28;4.17;;;2.10;;
17727;SDS011;8984;49.268;12.302;2022-09-11T00:44:56;2.50;;;1.70;;
17727;SDS011;8984;49.268;12.302;2022-09-11T00:47:29;5.63;;;2.13;;
17727;SDS011;8984;49.268;12.302;2022-09-11T00:49:58;1.90;;;1.30;;
17727;SDS011;8984;49.268;12.302;2022-09-11T00:52:34;6.13;;;1.70;;
17727;SDS011;8984;49.268;12.302;2022-09-11T00:55:06;2.70;;;1.40;;
17727;SDS011;8984;49.268;12.302;2022-09-11T00:57:37;3.00;;;1.70;;
17727;SDS011;8984;49.268;12.302;2022-09-11T01:00:08;4.40;;;1.80;;
17727;SDS011;8984;49.268;12.302;2022-09-11T01:02:39;5.03;;;1.47;;
17727;SDS011;8984;49.268;12.302;2022-09-11T01:05:09;2.60;;;1.73;;
17727;SDS011;8984;49.268;12.302;2022-09-11T01:07:37;4.13;;;1.80;;
17727;SDS011;8984;49.268;12.302;2022-09-11T01:10:06;3.23;;;1.77;;
17727;SDS011;8984;49.268;12.302;2022-09-11T01:12:35;6.37;;;1.77;;
17727;SDS011;8984;49.268;12.302;2022-09-11T01:15:12;4.47;;;1.60;;
17727;SDS011;8984;49.268;12.302;2022-09-11T01:17:46;4.60;;;2.03;;
17727;SDS011;8984;49.268;12.302;2022-09-11T01:20:30;3.73;;;1.53;;
17727;SDS011;8984;49.268;12.302;2022-09-11T01:23:06;3.77;;;1.70;;
17727;SDS011;8984;49.268;12.302;2022-09-11T01:25:52;3.20;;;1.90;;
17727;SDS011;8984;49.268;12.302;2022-09-11T01:28:34;2.43;;;1.60;;
17727;SDS011;8984;49.268;12.302;2022-09-11T01:31:05;5.77;;;2.40;;
17727;SDS011;8984;49.268;12.302;2022-09-11T01:33:37;3.50;;;1.77;;
17727;SDS011;8984;49.268;12.302;2022-09-11T01:36:09;4.07;;;2.00;;
17727;SDS011;8984;49.268;12.302;2022-09-11T01:38:43;5.60;;;2.10;;
17727;SDS011;8984;49.268;12.302;2022-09-11T01:41:14;6.83;;;2.13;;
17727;SDS011;8984;49.268;12.302;2022-09-11T01:43:46;4.03;;;2.03;;
17727;SDS011;8984;49.268;12.302;2022-09-11T01:46:18;4.80;;;1.80;;
17727;SDS011;8984;49.268;12.302;2022-09-11T01:48:48;3.67;;;1.73;;
17727;SDS011;8984;49.268;12.302;2022-09-11T01:51:20;4.97;;;2.23;;
17727;SDS011;8984;49.268;12.302;2022-09-11T01:53:50;5.00;;;2.40;;
17727;SDS011;8984;49.268;12.302;2022-09-11T01:56:19;3.27;;;1.80;;
17727;SDS011;8984;49.268;12.302;2022-09-11T01:58:52;5.13;;;2.10;;
17727;SDS011;8984;49.268;12.302;2022-09-11T02:01:26;3.97;;;1.93;;
17727;SDS011;8984;49.268;12.302;2022-09-11T02:03:56;2.53;;;1.90;;
17727;SDS011;8984;49.268;12.302;2022-09-11T02:06:32;2.60;;;1.83;;
17727;SDS011;8984;49.268;12.302;2022-09-11T02:09:03;5.07;;;2.37;;
17727;SDS011;8984;49.268;12.302;2022-09-11T02:11:33;2.93;;;1.80;;
17727;SDS011;8984;49.268;12.302;2022-09-11T02:14:07;2.80;;;2.00;;
17727;SDS011;8984;49.268;12.302;2022-09-11T02:16:44;4.53;;;2.10;;
17727;SDS011;8984;49.268;12.302;2022-09-11T02:19:15;5.20;;;2.00;;
17727;SDS011;8984;49.268;12.302;2022-09-11T02:21:45;3.93;;;2.10;;
17727;SDS011;8984;49.268;12.302;2022-09-11T02:24:13;3.73;;;2.20;;
17727;SDS011;8984;49.268;12.302;2022-09-11T02:26:41;3.03;;;2.10;;
17727;SDS011;8984;49.268;12.302;2022-09-11T02:29:11;6.03;;;2.20;;
17727;SDS011;8984;49.268;12.302;2022-09-11T02:31:38;3.97;;;1.90;;
17727;SDS011;8984;49.268;12.302;2022-09-11T02:34:07;5.80;;;2.03;;
17727;SDS011;8984;49.268;12.302;2022-09-11T02:36:44;2.07;;;1.70;;
17727;SDS011;8984;49.268;12.302;2022-09-11T02:39:24;5.03;;;2.00;;
17727;SDS011;8984;49.268;12.302;2022-09-11T02:42:05;5.10;;;2.23;;
17727;SDS011;8984;49.268;12.302;2022-09-11T02:44:44;3.63;;;2.43;;
17727;SDS011;8984;49.268;12.302;2022-09-11T02:47:21;3.63;;;2.00;;
17727;SDS011;8984;49.268;12.302;2022-09-11T02:49:58;4.63;;;2.07;;
17727;SDS011;8984;49.268;12.302;2022-09-11T02:52:35;5.70;;;2.40;;
17727;SDS011;8984;49.268;12.302;2022-09-11T02:55:14;2.50;;;1.77;;
17727;SDS011;8984;49.268;12.302;2022-09-11T02:57:48;5.80;;;1.90;;
17727;SDS011;8984;49.268;12.302;2022-09-11T03:00:22;6.07;;;2.27;;
17727;SDS011;8984;49.268;12.302;2022-09-11T03:02:49;3.67;;;1.80;;
17727;SDS011;8984;49.268;12.302;2022-09-11T03:05:17;5.47;;;1.97;;
17727;SDS011;8984;49.268;12.302;2022-09-11T03:07:45;4.30;;;2.10;;
17727;SDS011;8984;49.268;12.302;2022-09-11T03:10:12;6.93;;;2.23;;
17727;SDS011;8984;49.268;12.302;2022-09-11T03:12:38;5.00;;;2.20;;
17727;SDS011;8984;49.268;12.302;2022-09-11T03:15:06;2.30;;;1.90;;
17727;SDS011;8984;49.268;12.302;2022-09-11T03:17:35;6.80;;;2.73;;
17727;SDS011;8984;49.268;12.302;2022-09-11T03:20:03;5.07;;;2.43;;
17727;SDS011;8984;49.268;12.302;2022-09-11T03:25:22;2.73;;;1.93;;
17727;SDS011;8984;49.268;12.302;2022-09-11T03:27:52;5.13;;;2.17;;
17727;SDS011;8984;49.268;12.302;2022-09-11T03:30:19;2.60;;;1.90;;
17727;SDS011;8984;49.268;12.302;2022-09-11T03:32:47;4.57;;;2.40;;
17727;SDS011;8984;49.268;12.302;2022-09-11T03:35:14;3.50;;;1.87;;
17727;SDS011;8984;49.268;12.302;2022-09-11T03:37:41;3.70;;;2.10;;
17727;SDS011;8984;49.268;12.302;2022-09-11T03:40:08;4.57;;;2.20;;
17727;SDS011;8984;49.268;12.302;2022-09-11T03:42:35;3.47;;;2.00;;
17727;SDS011;8984;49.268;12.302;2022-09-11T03:45:02;3.00;;;1.83;;
17727;SDS011;8984;49.268;12.302;2022-09-11T03:47:29;2.67;;;1.73;;
17727;SDS011;8984;49.268;12.302;2022-09-11T03:49:57;2.83;;;1.60;;
17727;SDS011;8984;49.268;12.302;2022-09-11T03:52:24;2.60;;;1.50;;
17727;SDS011;8984;49.268;12.302;2022-09-11T03:54:51;4.17;;;1.97;;
17727;SDS011;8984;49.268;12.302;2022-09-11T03:57:18;5.37;;;2.17;;
17727;SDS011;8984;49.268;12.302;2022-09-11T03:59:45;2.07;;;1.77;;
17727;SDS011;8984;49.268;12.302;2022-09-11T04:02:12;4.53;;;1.97;;
17727;SDS011;8984;49.268;12.302;2022-09-11T04:04:39;3.27;;;1.90;;
17727;SDS011;8984;49.268;12.302;2022-09-11T04:07:08;3.13;;;1.83;;
17727;SDS011;8984;49.268;12.302;2022-09-11T04:09:35;5.70;;;2.27;;
17727;SDS011;8984;49.268;12.302;2022-09-11T04:12:01;2.37;;;1.80;;
17727;SDS011;8984;49.268;12.302;2022-09-11T04:14:29;2.50;;;1.67;;
17727;SDS011;8984;49.268;12.302;2022-09-11T04:16:56;2.40;;;1.60;;
17727;SDS011;8984;49.268;12.302;2022-09-11T04:19:23;2.47;;;1.70;;
17727;SDS011;8984;49.268;12.302;2022-09-11T04:21:50;2.37;;;1.70;;
17727;SDS011;8984;49.268;12.302;2022-09-11T04:24:19;3.00;;;1.70;;
17727;SDS011;8984;49.268;12.302;2022-09-11T04:26:45;2.90;;;1.90;;
17727;SDS011;8984;49.268;12.302;2022-09-11T04:29:12;2.83;;;2.10;;
17727;SDS011;8984;49.268;12.302;2022-09-11T04:31:41;2.10;;;1.70;;
17727;SDS011;8984;49.268;12.302;2022-09-11T04:34:08;5.47;;;2.27;;
17727;SDS011;8984;49.268;12.302;2022-09-11T04:36:35;3.97;;;2.10;;
17727;SDS011;8984;49.268;12.302;2022-09-11T04:39:02;2.50;;;1.70;;
17727;SDS011;8984;49.268;12.302;2022-09-11T04:41:31;2.83;;;1.80;;
17727;SDS011;8984;49.268;12.302;2022-09-11T04:43:58;3.20;;;1.70;;
17727;SDS011;8984;49.268;12.302;2022-09-11T04:46:25;2.43;;;2.00;;
17727;SDS011;8984;49.268;12.302;2022-09-11T04:48:53;5.77;;;1.80;;
17727;SDS011;8984;49.268;12.302;2022-09-11T04:51:23;2.60;;;1.60;;
17727;SDS011;8984;49.268;12.302;2022-09-11T04:53:52;5.90;;;2.10;;
17727;SDS011;8984;49.268;12.302;2022-09-11T04:56:22;3.67;;;2.13;;
17727;SDS011;8984;49.268;12.302;2022-09-11T04:58:52;3.83;;;1.80;;
17727;SDS011;8984;49.268;12.302;2022-09-11T05:01:20;3.13;;;1.70;;
17727;SDS011;8984;49.268;12.302;2022-09-11T05:03:48;3.50;;;2.40;;
17727;SDS011;8984;49.268;12.302;2022-09-11T05:06:16;2.10;;;1.90;;
17727;SDS011;8984;49.268;12.302;2022-09-11T05:08:44;4.00;;;1.90;;
17727;SDS011;8984;49.268;12.302;2022-09-11T05:11:12;2.47;;;2.00;;
17727;SDS011;8984;49.268;12.302;2022-09-11T05:13:40;2.03;;;1.90;;
17727;SDS011;8984;49.268;12.302;2022-09-11T05:16:09;2.77;;;1.60;;
17727;SDS011;8984;49.268;12.302;2022-09-11T05:18:38;2.67;;;1.80;;
17727;SDS011;8984;49.268;12.302;2022-09-11T05:21:08;2.50;;;2.00;;
17727;SDS011;8984;49.268;12.302;2022-09-11T05:23:37;4.47;;;1.80;;
17727;SDS011;8984;49.268;12.302;2022-09-11T05:26:05;5.00;;;1.80;;
17727;SDS011;8984;49.268;12.302;2022-09-11T05:28:32;3.67;;;2.00;;
17727;SDS011;8984;49.268;12.302;2022-09-11T05:30:59;4.97;;;1.90;;
17727;SDS011;8984;49.268;12.302;2022-09-11T05:33:28;4.67;;;2.20;;
17727;SDS011;8984;49.268;12.302;2022-09-11T05:36:01;2.83;;;2.07;;
17727;SDS011;8984;49.268;12.302;2022-09-11T05:38:29;4.30;;;2.30;;
17727;SDS011;8984;49.268;12.302;2022-09-11T05:40:55;4.03;;;2.80;;
17727;SDS011;8984;49.268;12.302;2022-09-11T05:43:22;3.23;;;2.20;;
17727;SDS011;8984;49.268;12.302;2022-09-11T05:45:52;3.87;;;2.53;;
17727;SDS011;8984;49.268;12.302;2022-09-11T05:48:20;4.10;;;2.30;;
17727;SDS011;8984;49.268;12.302;2022-09-11T05:50:52;2.53;;;2.10;;
17727;SDS011;8984;49.268;12.302;2022-09-11T05:53:19;3.53;;;2.20;;
17727;SDS011;8984;49.268;12.302;2022-09-11T05:55:46;2.77;;;1.90;;
17727;SDS011;8984;49.268;12.302;2022-09-11T05:58:13;3.00;;;1.70;;
17727;SDS011;8984;49.268;12.302;2022-09-11T06:00:41;2.63;;;1.90;;
17727;SDS011;8984;49.268;12.302;2022-09-11T06:03:10;4.40;;;1.90;;
17727;SDS011;8984;49.268;12.302;2022-09-11T06:05:37;3.90;;;2.60;;
17727;SDS011;8984;49.268;12.302;2022-09-11T06:08:06;3.40;;;2.40;;
17727;SDS011;8984;49.268;12.302;2022-09-11T06:10:33;4.00;;;2.20;;
17727;SDS011;8984;49.268;12.302;2022-09-11T06:13:00;3.00;;;2.53;;
17727;SDS011;8984;49.268;12.302;2022-09-11T06:15:27;3.63;;;2.60;;
17727;SDS011;8984;49.268;12.302;2022-09-11T06:17:53;3.90;;;2.60;;
17727;SDS011;8984;49.268;12.302;2022-09-11T06:20:21;3.23;;;2.37;;
17727;SDS011;8984;49.268;12.302;2022-09-11T06:22:47;2.63;;;2.30;;
17727;SDS011;8984;49.268;12.302;2022-09-11T06:25:17;2.37;;;2.17;;
17727;SDS011;8984;49.268;12.302;2022-09-11T06:27:44;3.37;;;2.37;;
17727;SDS011;8984;49.268;12.302;2022-09-11T06:30:11;5.30;;;2.67;;
17727;SDS011;8984;49.268;12.302;2022-09-11T06:32:39;3.40;;;2.23;;
17727;SDS011;8984;49.268;12.302;2022-09-11T06:35:06;4.40;;;2.20;;
17727;SDS011;8984;49.268;12.302;2022-09-11T06:37:34;4.37;;;2.10;;
17727;SDS011;8984;49.268;12.302;2022-09-11T06:40:01;3.83;;;1.73;;
17727;SDS011;8984;49.268;12.302;2022-09-11T06:42:29;2.10;;;1.90;;
17727;SDS011;8984;49.268;12.302;2022-09-11T06:44:57;2.10;;;1.57;;
17727;SDS011;8984;49.268;12.302;2022-09-11T06:47:24;2.47;;;1.57;;
17727;SDS011;8984;49.268;12.302;2022-09-11T06:49:51;3.30;;;1.53;;
17727;SDS011;8984;49.268;12.302;2022-09-11T06:52:17;2.47;;;1.60;;
17727;SDS011;8984;49.268;12.302;2022-09-11T06:54:44;1.20;;;1.10;;
17727;SDS011;8984;49.268;12.302;2022-09-11T06:57:11;1.80;;;1.30;;
17727;SDS011;8984;49.268;12.302;2022-09-11T06:59:39;3.07;;;1.40;;
17727;SDS011;8984;49.268;12.302;2022-09-11T07:02:07;1.07;;;1.00;;
17727;SDS011;8984;49.268;12.302;2022-09-11T07:04:34;1.83;;;1.10;;
17727;SDS011;8984;49.268;12.302;2022-09-11T07:07:00;1.57;;;0.87;;
17727;SDS011;8984;49.268;12.302;2022-09-11T07:09:27;2.40;;;0.87;;
17727;SDS011;8984;49.268;12.302;2022-09-11T07:11:54;1.47;;;1.10;;
17727;SDS011;8984;49.268;12.302;2022-09-11T07:14:21;1.23;;;1.03;;
17727;SDS011;8984;49.268;12.302;2022-09-11T07:16:50;1.70;;;1.10;;
17727;SDS011;8984;49.268;12.302;2022-09-11T07:19:20;1.73;;;1.00;;
17727;SDS011;8984;49.268;12.302;2022-09-11T07:21:48;2.40;;;0.93;;
17727;SDS011;8984;49.268;12.302;2022-09-11T07:24:15;1.87;;;1.00;;
17727;SDS011;8984;49.268;12.302;2022-09-11T07:30:04;3.30;;;1.30;;
17727;SDS011;8984;49.268;12.302;2022-09-11T07:32:33;3.63;;;1.30;;
17727;SDS011;8984;49.268;12.302;2022-09-11T07:35:01;1.33;;;1.20;;
17727;SDS011;8984;49.268;12.302;2022-09-11T07:37:29;1.20;;;1.10;;
17727;SDS011;8984;49.268;12.302;2022-09-11T07:39:56;1.43;;;1.33;;
17727;SDS011;8984;49.268;12.302;2022-09-11T07:42:23;1.40;;;1.30;;
17727;SDS011;8984;49.268;12.302;2022-09-11T07:44:50;1.40;;;1.30;;
17727;SDS011;8984;49.268;12.302;2022-09-11T07:47:17;2.10;;;1.57;;
17727;SDS011;8984;49.268;12.302;2022-09-11T07:49:45;2.37;;;1.63;;
17727;SDS011;8984;49.268;12.302;2022-09-11T07:52:12;1.60;;;1.30;;
17727;SDS011;8984;49.268;12.302;2022-09-11T07:54:39;1.90;;;1.70;;
17727;SDS011;8984;49.268;12.302;2022-09-11T07:57:06;1.90;;;1.57;;
17727;SDS011;8984;49.268;12.302;2022-09-11T07:59:33;1.97;;;1.80;;
17727;SDS011;8984;49.268;12.302;2022-09-11T08:02:00;2.20;;;1.60;;
17727;SDS011;8984;49.268;12.302;2022-09-11T08:04:27;2.40;;;2.20;;
17727;SDS011;8984;49.268;12.302;2022-09-11T08:06:55;1.90;;;1.70;;
17727;SDS011;8984;49.268;12.302;2022-09-11T08:09:27;2.70;;;1.60;;
17727;SDS011;8984;49.268;12.302;2022-09-11T08:11:54;1.70;;;1.40;;
17727;SDS011;8984;49.268;12.302;2022-09-11T08:14:22;2.33;;;2.00;;
17727;SDS011;8984;49.268;12.302;2022-09-11T08:16:50;2.47;;;1.90;;
17727;SDS011;8984;49.268;12.302;2022-09-11T08:19:18;1.77;;;1.50;;
17727;SDS011;8984;49.268;12.302;2022-09-11T08:21:46;2.67;;;1.60;;
17727;SDS011;8984;49.268;12.302;2022-09-11T08:24:16;3.63;;;1.70;;
17727;SDS011;8984;49.268;12.302;2022-09-11T08:26:44;2.60;;;1.60;;
17727;SDS011;8984;49.268;12.302;2022-09-11T08:29:11;2.00;;;1.80;;
17727;SDS011;8984;49.268;12.302;2022-09-11T08:31:38;2.33;;;1.80;;
17727;SDS011;8984;49.268;12.302;2022-09-11T08:34:04;3.20;;;1.73;;
17727;SDS011;8984;49.268;12.302;2022-09-11T08:36:31;1.63;;;1.40;;
17727;SDS011;8984;49.268;12.302;2022-09-11T08:38:58;1.93;;;1.80;;
17727;SDS011;8984;49.268;12.302;2022-09-11T08:41:34;2.60;;;1.77;;
17727;SDS011;8984;49.268;12.302;2022-09-11T08:44:10;1.90;;;1.80;;
17727;SDS011;8984;49.268;12.302;2022-09-11T08:46:41;2.27;;;1.70;;
17727;SDS011;8984;49.268;12.302;2022-09-11T08:49:13;2.10;;;1.63;;
17727;SDS011;8984;49.268;12.302;2022-09-11T08:51:46;3.13;;;1.53;;
17727;SDS011;8984;49.268;12.302;2022-09-11T08:54:19;1.93;;;1.60;;
17727;SDS011;8984;49.268;12.302;2022-09-11T08:56:53;1.97;;;1.60;;
17727;SDS011;8984;49.268;12.302;2022-09-11T08:59:30;1.50;;;1.40;;
17727;SDS011;8984;49.268;12.302;2022-09-11T09:02:09;2.03;;;1.30;;
17727;SDS011;8984;49.268;12.302;2022-09-11T09:04:58;3.30;;;1.50;;
17727;SDS011;8984;49.268;12.302;2022-09-11T09:07:42;1.50;;;1.40;;
17727;SDS011;8984;49.268;12.302;2022-09-11T09:10:27;1.97;;;1.50;;
17727;SDS011;8984;49.268;12.302;2022-09-11T09:13:11;1.30;;;1.20;;
17727;SDS011;8984;49.268;12.302;2022-09-11T09:15:52;1.20;;;1.10;;
17727;SDS011;8984;49.268;12.302;2022-09-11T09:18:28;3.53;;;1.63;;
17727;SDS011;8984;49.268;12.302;2022-09-11T09:20:59;1.57;;;1.40;;
17727;SDS011;8984;49.268;12.302;2022-09-11T09:23:30;1.77;;;1.20;;
17727;SDS011;8984;49.268;12.302;2022-09-11T09:26:06;1.63;;;1.10;;
17727;SDS011;8984;49.268;12.302;2022-09-11T09:28:41;1.90;;;1.10;;
17727;SDS011;8984;49.268;12.302;2022-09-11T09:31:16;2.17;;;1.23;;
17727;SDS011;8984;49.268;12.302;2022-09-11T09:33:47;1.77;;;1.07;;
17727;SDS011;8984;49.268;12.302;2022-09-11T09:36:17;2.10;;;1.10;;
17727;SDS011;8984;49.268;12.302;2022-09-11T09:38:47;2.20;;;1.27;;
17727;SDS011;8984;49.268;12.302;2022-09-11T09:41:18;1.37;;;1.27;;
17727;SDS011;8984;49.268;12.302;2022-09-11T09:44:10;2.23;;;1.10;;
17727;SDS011;8984;49.268;12.302;2022-09-11T09:46:42;1.30;;;1.20;;
17727;SDS011;8984;49.268;12.302;2022-09-11T09:49:12;1.20;;;1.10;;
17727;SDS011;8984;49.268;12.302;2022-09-11T09:51:43;2.00;;;1.00;;
17727;SDS011;8984;49.268;12.302;2022-09-11T09:54:12;1.50;;;1.00;;
17727;SDS011;8984;49.268;12.302;2022-09-11T09:56:41;0.90;;;0.90;;
17727;SDS011;8984;49.268;12.302;2022-09-11T09:59:15;1.40;;;0.97;;
17727;SDS011;8984;49.268;12.302;2022-09-11T10:01:47;1.37;;;0.90;;
17727;SDS011;8984;49.268;12.302;2022-09-11T10:04:16;1.83;;;1.00;;
17727;SDS011;8984;49.268;12.302;2022-09-11T10:06:46;1.33;;;0.93;;
17727;SDS011;8984;49.268;12.302;2022-09-11T10:09:18;0.90;;;0.80;;
17727;SDS011;8984;49.268;12.302;2022-09-11T10:11:50;0.73;;;0.70;;
17727;SDS011;8984;49.268;12.302;2022-09-11T10:14:28;2.40;;;1.00;;
17727;SDS011;8984;49.268;12.302;2022-09-11T10:16:57;1.60;;;1.10;;
17727;SDS011;8984;49.268;12.302;2022-09-11T10:19:36;1.43;;;1.07;;
17727;SDS011;8984;49.268;12.302;2022-09-11T10:22:13;1.40;;;1.00;;
17727;SDS011;8984;49.268;12.302;2022-09-11T10:25:03;1.13;;;1.00;;
17727;SDS011;8984;49.268;12.302;2022-09-11T10:27:37;1.37;;;1.00;;
17727;SDS011;8984;49.268;12.302;2022-09-11T10:30:27;1.83;;;1.00;;
17727;SDS011;8984;49.268;12.302;2022-09-11T10:32:56;1.10;;;1.00;;
17727;SDS011;8984;49.268;12.302;2022-09-11T10:35:24;1.80;;;0.90;;
17727;SDS011;8984;49.268;12.302;2022-09-11T10:37:58;2.28;;;1.10;;
17727;SDS011;8984;49.268;12.302;2022-09-11T10:40:33;0.90;;;0.80;;
17727;SDS011;8984;49.268;12.302;2022-09-11T10:43:02;1.00;;;1.00;;
17727;SDS011;8984;49.268;12.302;2022-09-11T10:45:31;1.40;;;1.13;;
17727;SDS011;8984;49.268;12.302;2022-09-11T10:48:04;2.42;;;1.00;;
17727;SDS011;8984;49.268;12.302;2022-09-11T10:50:40;2.42;;;1.00;;
17727;SDS011;8984;49.268;12.302;2022-09-11T10:53:11;1.40;;;0.82;;
17727;SDS011;8984;49.268;12.302;2022-09-11T10:55:45;1.10;;;1.00;;
17727;SDS011;8984;49.268;12.302;2022-09-11T10:58:22;1.58;;;0.80;;
17727;SDS011;8984;49.268;12.302;2022-09-11T11:00:53;1.23;;;1.00;;
17727;SDS011;8984;49.268;12.302;2022-09-11T11:03:22;2.30;;;1.00;;
17727;SDS011;8984;49.268;12.302;2022-09-11T11:05:54;1.00;;;0.90;;
17727;SDS011;8984;49.268;12.302;2022-09-11T11:08:36;0.80;;;0.80;;
17727;SDS011;8984;49.268;12.302;2022-09-11T11:11:32;2.40;;;1.20;;
17727;SDS011;8984;49.268;12.302;2022-09-11T11:17:11;1.25;;;1.00;;
17727;SDS011;8984;49.268;12.302;2022-09-11T11:20:00;1.33;;;0.80;;
17727;SDS011;8984;49.268;12.302;2022-09-11T11:23:10;1.10;;;0.85;;
17727;SDS011;8984;49.268;12.302;2022-09-11T11:25:57;0.95;;;0.90;;
17727;SDS011;8984;49.268;12.302;2022-09-11T11:28:40;2.45;;;1.23;;
17727;SDS011;8984;49.268;12.302;2022-09-11T11:31:36;1.77;;;1.25;;
17727;SDS011;8984;49.268;12.302;2022-09-11T11:34:11;2.97;;;1.10;;
17727;SDS011;8984;49.268;12.302;2022-09-11T11:36:52;2.92;;;1.00;;
17727;SDS011;8984;49.268;12.302;2022-09-11T11:39:23;2.58;;;0.90;;
17727;SDS011;8984;49.268;12.302;2022-09-11T11:41:58;1.10;;;1.00;;
17727;SDS011;8984;49.268;12.302;2022-09-11T11:44:32;1.10;;;1.00;;
17727;SDS011;8984;49.268;12.302;2022-09-11T11:47:05;1.00;;;0.90;;
17727;SDS011;8984;49.268;12.302;2022-09-11T11:49:39;1.70;;;1.20;;
17727;SDS011;8984;49.268;12.302;2022-09-11T11:52:18;1.33;;;1.17;;
17727;SDS011;8984;49.268;12.302;2022-09-11T11:54:51;1.70;;;1.33;;
17727;SDS011;8984;49.268;12.302;2022-09-11T11:57:25;1.42;;;1.00;;
17727;SDS011;8984;49.268;12.302;2022-09-11T11:59:58;1.40;;;1.30;;
17727;SDS011;8984;49.268;12.302;2022-09-11T12:02:32;1.30;;;1.20;;
17727;SDS011;8984;49.268;12.302;2022-09-11T12:05:10;1.90;;;1.30;;
17727;SDS011;8984;49.268;12.302;2022-09-11T12:07:41;1.20;;;1.10;;
17727;SDS011;8984;49.268;12.302;2022-09-11T12:10:17;2.20;;;1.20;;
17727;SDS011;8984;49.268;12.302;2022-09-11T12:12:47;1.58;;;1.30;;
17727;SDS011;8984;49.268;12.302;2022-09-11T12:15:18;3.42;;;1.15;;
17727;SDS011;8984;49.268;12.302;2022-09-11T12:17:47;1.42;;;1.27;;
17727;SDS011;8984;49.268;12.302;2022-09-11T12:20:35;1.73;;;1.45;;
17727;SDS011;8984;49.268;12.302;2022-09-11T12:23:05;1.35;;;1.25;;
17727;SDS011;8984;49.268;12.302;2022-09-11T12:26:04;2.00;;;1.20;;
17727;SDS011;8984;49.268;12.302;2022-09-11T12:28:42;2.08;;;1.30;;
17727;SDS011;8984;49.268;12.302;2022-09-11T12:31:09;2.28;;;1.30;;
17727;SDS011;8984;49.268;12.302;2022-09-11T12:33:47;1.50;;;1.27;;
17727;SDS011;8984;49.268;12.302;2022-09-11T12:36:27;2.28;;;1.13;;
17727;SDS011;8984;49.268;12.302;2022-09-11T12:39:00;1.55;;;1.20;;
17727;SDS011;8984;49.268;12.302;2022-09-11T12:41:30;1.20;;;1.10;;
17727;SDS011;8984;49.268;12.302;2022-09-11T12:43:59;1.50;;;1.30;;
17727;SDS011;8984;49.268;12.302;2022-09-11T12:49:40;1.30;;;1.20;;
17727;SDS011;8984;49.268;12.302;2022-09-11T12:52:28;1.35;;;1.25;;
17727;SDS011;8984;49.268;12.302;2022-09-11T12:55:01;1.50;;;1.33;;
17727;SDS011;8984;49.268;12.302;2022-09-11T12:57:34;1.30;;;1.20;;
17727;SDS011;8984;49.268;12.302;2022-09-11T13:00:03;1.58;;;1.35;;
17727;SDS011;8984;49.268;12.302;2022-09-11T13:02:33;1.10;;;1.00;;
17727;SDS011;8984;49.268;12.302;2022-09-11T13:05:03;1.70;;;1.17;;
17727;SDS011;8984;49.268;12.302;2022-09-11T13:07:41;1.85;;;1.15;;
17727;SDS011;8984;49.268;12.302;2022-09-11T13:10:19;1.30;;;1.20;;
17727;SDS011;8984;49.268;12.302;2022-09-11T13:12:59;1.73;;;1.15;;
17727;SDS011;8984;49.268;12.302;2022-09-11T13:15:37;1.20;;;1.10;;
17727;SDS011;8984;49.268;12.302;2022-09-11T13:21:11;1.65;;;1.42;;
17727;SDS011;8984;49.268;12.302;2022-09-11T13:23:42;1.45;;;1.30;;
17727;SDS011;8984;49.268;12.302;2022-09-11T13:26:12;1.42;;;1.30;;
17727;SDS011;8984;49.268;12.302;2022-09-11T13:28:45;1.50;;;1.40;;
17727;SDS011;8984;49.268;12.302;2022-09-11T13:31:16;1.58;;;1.38;;
17727;SDS011;8984;49.268;12.302;2022-09-11T13:33:48;2.60;;;1.45;;
17727;SDS011;8984;49.268;12.302;2022-09-11T13:36:18;1.30;;;1.20;;
17727;SDS011;8984;49.268;12.302;2022-09-11T13:38:48;1.80;;;1.70;;
17727;SDS011;8984;49.268;12.302;2022-09-11T13:41:19;2.08;;;1.70;;
17727;SDS011;8984;49.268;12.302;2022-09-11T13:43:50;1.77;;;1.52;;
17727;SDS011;8984;49.268;12.302;2022-09-11T13:46:20;1.48;;;1.38;;
17727;SDS011;8984;49.268;12.302;2022-09-11T13:48:49;1.20;;;1.10;;
17727;SDS011;8984;49.268;12.302;2022-09-11T13:51:19;1.42;;;1.30;;
17727;SDS011;8984;49.268;12.302;2022-09-11T13:53:54;1.33;;;1.23;;
17727;SDS011;8984;49.268;12.302;2022-09-11T13:56:36;1.48;;;1.38;;
17727;SDS011;8984;49.268;12.302;2022-09-11T13:59:25;1.40;;;1.30;;
17727;SDS011;8984;49.268;12.302;2022-09-11T14:02:00;1.90;;;1.65;;
17727;SDS011;8984;49.268;12.302;2022-09-11T14:04:29;1.73;;;1.05;;
17727;SDS011;8984;49.268;12.302;2022-09-11T14:06:57;1.83;;;1.33;;
17727;SDS011;8984;49.268;12.302;2022-09-11T14:09:25;1.70;;;1.50;;
17727;SDS011;8984;49.268;12.302;2022-09-11T14:11:52;1.80;;;1.70;;
17727;SDS011;8984;49.268;12.302;2022-09-11T14:14:20;2.47;;;1.50;;
17727;SDS011;8984;49.268;12.302;2022-09-11T14:16:51;3.13;;;1.60;;
17727;SDS011;8984;49.268;12.302;2022-09-11T14:19:22;1.90;;;1.70;;
17727;SDS011;8984;49.268;12.302;2022-09-11T14:21:51;1.60;;;1.50;;
17727;SDS011;8984;49.268;12.302;2022-09-11T14:24:26;1.88;;;1.40;;
17727;SDS011;8984;49.268;12.302;2022-09-11T14:26:58;2.08;;;1.60;;
17727;SDS011;8984;49.268;12.302;2022-09-11T14:29:26;2.40;;;1.60;;
17727;SDS011;8984;49.268;12.302;2022-09-11T14:32:21;2.38;;;1.63;;
17727;SDS011;8984;49.268;12.302;2022-09-11T14:34:53;3.58;;;1.70;;
17727;SDS011;8984;49.268;12.302;2022-09-11T14:37:20;2.20;;;1.73;;
17727;SDS011;8984;49.268;12.302;2022-09-11T14:39:50;1.98;;;1.77;;
17727;SDS011;8984;49.268;12.302;2022-09-11T14:42:21;1.77;;;1.60;;
17727;SDS011;8984;49.268;12.302;2022-09-11T14:44:50;1.58;;;1.48;;
17727;SDS011;8984;49.268;12.302;2022-09-11T14:47:18;1.80;;;1.70;;
17727;SDS011;8984;49.268;12.302;2022-09-11T14:49:47;2.15;;;1.80;;
17727;SDS011;8984;49.268;12.302;2022-09-11T14:52:14;1.92;;;1.67;;
17727;SDS011;8984;49.268;12.302;2022-09-11T14:54:43;2.03;;;1.80;;
17727;SDS011;8984;49.268;12.302;2022-09-11T14:57:13;2.13;;;1.48;;
17727;SDS011;8984;49.268;12.302;2022-09-11T14:59:41;2.00;;;1.52;;
17727;SDS011;8984;49.268;12.302;2022-09-11T15:02:09;1.63;;;1.35;;
17727;SDS011;8984;49.268;12.302;2022-09-11T15:04:36;1.63;;;1.52;;
17727;SDS011;8984;49.268;12.302;2022-09-11T15:07:04;1.50;;;1.40;;
17727;SDS011;8984;49.268;12.302;2022-09-11T15:09:32;1.40;;;1.30;;
17727;SDS011;8984;49.268;12.302;2022-09-11T15:11:59;2.00;;;1.70;;
17727;SDS011;8984;49.268;12.302;2022-09-11T15:14:27;2.03;;;1.80;;
17727;SDS011;8984;49.268;12.302;2022-09-11T15:16:54;2.08;;;1.80;;
17727;SDS011;8984;49.268;12.302;2022-09-11T15:19:22;1.88;;;1.63;;
17727;SDS011;8984;49.268;12.302;2022-09-11T15:21:49;2.28;;;1.90;;
17727;SDS011;8984;49.268;12.302;2022-09-11T15:24:15;2.30;;;1.92;;
17727;SDS011;8984;49.268;12.302;2022-09-11T15:26:42;2.45;;;2.08;;